HomeShort term forecast

Short term forecast

Graphical weather forecast for the next 48 hours for Montreal:
Short term forecast
This weather forecast is automatically refreshed every 3 hours.

Hourly Experimental Forecast for the next 48 hours

Overall summary: Breezy until tomorrow morning and partly cloudy starting tomorrow afternoon.

 Date & Hour   Temp   Feel   Baro   Hum   Speed & Bearing   Wind Gust   Precip.%   Precip.   Visibility   Cloud cover   Conditions 
 16/10/2018 - 01:00  5.8°C  0.9°C  1008.4 hPa  65%  33.9 km/h   64.4 km/h  0%  --  16.1km  40%  Windy and Partly Cloudy 
 16/10/2018 - 02:00  4.8°C  -0.7°C  1009.2 hPa  66%  35.9 km/h   68.0 km/h  11%  0.05 mm/h  16.1km  24%  Windy 
 16/10/2018 - 03:00  4.1°C  -1.6°C  1009.9 hPa  67%  35.8 km/h   67.7 km/h  0%  --  16.1km  17%  Windy 
 16/10/2018 - 04:00  4.0°C  -1.6°C  1010.6 hPa  69%  34.1 km/h   63.1 km/h  10%  0.03 mm/h  16.1km  20%  Windy 
 16/10/2018 - 05:00  3.5°C  -2.0°C  1011.5 hPa  72%  32.3 km/h   58.4 km/h  0%  --  16.1km  21%  Breezy 
 16/10/2018 - 06:00  2.4°C  -3.3°C  1012.6 hPa  78%  29.4 km/h   55.2 km/h  6%  0.03 mm/h  16.1km  16%  Breezy 
 16/10/2018 - 07:00  1.7°C  -3.8°C  1013.6 hPa  80%  26.4 km/h   52.3 km/h  0%  --  16.1km  15%  Breezy 
 16/10/2018 - 08:00  2.0°C  -3.3°C  1014.5 hPa  79%  25.0 km/h   50.2 km/h  0%  --  16.1km  10%  Breezy 
 16/10/2018 - 09:00  2.8°C  -2.2°C  1015.1 hPa  74%  24.3 km/h   46.7 km/h  2%  0.01 mm/h  16.1km  8%  Breezy 
 16/10/2018 - 10:00  3.7°C  -0.9°C  1015.6 hPa  70%  23.0 km/h   40.6 km/h  4%  0.04 mm/h  16.1km  9%  Clear 
 16/10/2018 - 11:00  4.8°C  0.5°C  1015.7 hPa  65%  23.6 km/h   38.3 km/h  4%  0.02 mm/h  16.1km  9%  Clear 
 16/10/2018 - 12:00  5.8°C  1.7°C  1015.5 hPa  61%  23.8 km/h   39.9 km/h  0%  --  16.1km  7%  Clear 
 16/10/2018 - 13:00  6.7°C  2.8°C  1015.0 hPa  58%  23.4 km/h   40.3 km/h  0%  --  16.1km  6%  Clear 
 16/10/2018 - 14:00  7.6°C  3.9°C  1014.3 hPa  54%  23.8 km/h   38.7 km/h  0%  --  16.1km  9%  Clear 
 16/10/2018 - 15:00  7.9°C  4.6°C  1013.6 hPa  55%  21.7 km/h   37.5 km/h  0%  --  16.1km  24%  Clear 
 16/10/2018 - 16:00  8.4°C  5.5°C  1012.7 hPa  56%  19.2 km/h   36.3 km/h  0%  --  16.1km  44%  Partly Cloudy 
 16/10/2018 - 17:00  8.8°C  6.1°C  1012.1 hPa  56%  17.9 km/h   36.0 km/h  0%  --  16.1km  59%  Partly Cloudy 
 16/10/2018 - 18:00  8.9°C  6.1°C  1011.8 hPa  58%  18.8 km/h   37.2 km/h  0%  --  16.1km  62%  Mostly Cloudy 
 16/10/2018 - 19:00  8.6°C  5.5°C  1011.6 hPa  60%  20.7 km/h   39.3 km/h  0%  --  16.1km  60%  Mostly Cloudy 
 16/10/2018 - 20:00  8.3°C  5.0°C  1011.3 hPa  62%  22.0 km/h   41.1 km/h  0%  --  16.1km  57%  Partly Cloudy 
 16/10/2018 - 21:00  7.9°C  4.6°C  1010.7 hPa  64%  21.8 km/h   42.5 km/h  0%  --  16.1km  53%  Partly Cloudy 
 16/10/2018 - 22:00  7.5°C  4.2°C  1010.0 hPa  66%  20.9 km/h   43.7 km/h  0%  --  16.1km  48%  Partly Cloudy 
 16/10/2018 - 23:00  7.3°C  3.9°C  1009.3 hPa  67%  20.2 km/h   45.0 km/h  0%  --  16.1km  46%  Partly Cloudy 
 17/10/2018 - 00:00  7.4°C  4.1°C  1008.6 hPa  68%  20.0 km/h   46.6 km/h  4%  0.01 mm/h  16.1km  50%  Partly Cloudy 
 17/10/2018 - 01:00  7.7°C  4.5°C  1007.9 hPa  67%  20.0 km/h   48.2 km/h  7%  0.02 mm/h  16.1km  56%  Partly Cloudy 
 17/10/2018 - 02:00  7.7°C  4.5°C  1007.3 hPa  69%  20.0 km/h   48.9 km/h  8%  0.04 mm/h  16.1km  62%  Mostly Cloudy 
 17/10/2018 - 03:00  7.6°C  4.3°C  1006.7 hPa  71%  20.0 km/h   48.4 km/h  7%  0.02 mm/h  16.1km  66%  Mostly Cloudy 
 17/10/2018 - 04:00  6.9°C  3.4°C  1006.1 hPa  76%  20.1 km/h   46.9 km/h  8%  0.02 mm/h  16.1km  70%  Mostly Cloudy 
 17/10/2018 - 05:00  6.4°C  2.9°C  1005.7 hPa  79%  20.2 km/h   45.5 km/h  9%  0.03 mm/h  16.1km  72%  Mostly Cloudy 
 17/10/2018 - 06:00  5.7°C  1.9°C  1005.6 hPa  83%  20.2 km/h   44.7 km/h  12%  0.04 mm/h  16.1km  71%  Mostly Cloudy 
 17/10/2018 - 07:00  5.1°C  1.2°C  1005.7 hPa  86%  20.2 km/h   44.1 km/h  21%  0.13 mm/h  16.1km  67%  Mostly Cloudy 
 17/10/2018 - 08:00  5.1°C  1.1°C  1005.8 hPa  84%  20.9 km/h   43.8 km/h  24%  0.22 mm/h  16.1km  62%  Mostly Cloudy 
 17/10/2018 - 09:00  5.5°C  1.4°C  1005.9 hPa  79%  22.9 km/h   43.8 km/h  18%  0.17 mm/h  16.1km  49%  Partly Cloudy 
 17/10/2018 - 10:00  6.4°C  2.3°C  1006.0 hPa  72%  25.5 km/h   43.9 km/h  11%  0.08 mm/h  16.1km  30%  Breezy and Partly Cloudy 
 17/10/2018 - 11:00  6.8°C  2.6°C  1006.1 hPa  67%  27.7 km/h   43.7 km/h  8%  0.04 mm/h  16.1km  19%  Breezy 
 17/10/2018 - 12:00  7.3°C  3.2°C  1006.1 hPa  62%  28.8 km/h   43.0 km/h  7%  0.02 mm/h  16.1km  29%  Breezy and Partly Cloudy 
 17/10/2018 - 13:00  7.6°C  3.5°C  1006.2 hPa  59%  29.5 km/h   42.1 km/h  8%  0.05 mm/h  16.1km  48%  Breezy and Partly Cloudy 
 17/10/2018 - 14:00  7.4°C  3.2°C  1006.4 hPa  57%  30.0 km/h   41.7 km/h  9%  0.07 mm/h  16.1km  65%  Breezy and Mostly Cloudy 
 17/10/2018 - 15:00  7.0°C  2.7°C  1006.8 hPa  56%  29.8 km/h   42.1 km/h  8%  0.05 mm/h  16.1km  75%  Breezy and Mostly Cloudy 
 17/10/2018 - 16:00  6.8°C  2.5°C  1007.3 hPa  54%  29.1 km/h   42.9 km/h  5%  0.02 mm/h  16.1km  85%  Breezy and Mostly Cloudy 
 17/10/2018 - 17:00  6.4°C  2.1°C  1008.1 hPa  54%  28.2 km/h   43.3 km/h  5%  0.02 mm/h  16.1km  90%  Breezy and Mostly Cloudy 
 17/10/2018 - 18:00  5.9°C  1.5°C  1009.2 hPa  53%  27.0 km/h   43.1 km/h  4%  0.01 mm/h  16.1km  79%  Breezy and Mostly Cloudy 
 17/10/2018 - 19:00  5.2°C  0.8°C  1010.5 hPa  54%  25.5 km/h   42.6 km/h  4%  0.01 mm/h  16.1km  60%  Mostly Cloudy 
 17/10/2018 - 20:00  4.5°C  0.0°C  1011.6 hPa  55%  24.5 km/h   42.4 km/h  3%  0.01 mm/h  16.1km  51%  Partly Cloudy 
 17/10/2018 - 21:00  3.9°C  -0.8°C  1012.3 hPa  57%  24.4 km/h   42.6 km/h  0%  --  16.1km  61%  Mostly Cloudy 
 17/10/2018 - 22:00  3.3°C  -1.7°C  1012.8 hPa  59%  24.8 km/h   43.0 km/h  0%  --  16.1km  80%  Breezy and Mostly Cloudy 
 17/10/2018 - 23:00  2.8°C  -2.3°C  1013.4 hPa  60%  25.3 km/h   43.8 km/h  0%  --  16.1km  91%  Breezy and Mostly Cloudy 
 18/10/2018 - 00:00  2.3°C  -3.1°C  1014.1 hPa  62%  25.7 km/h   45.4 km/h  0%  --  16.1km  88%  Breezy and Mostly Cloudy 
Test

 

Past weather and reports

Past weatherFind in this section the past weather conditions, weather archive, graphics, reports and statistics.

Current conditions

Current weather condition for MontrealAll you need to know about the current weather conditions for Montreal. Weather data is updated every 10 minutes.

Weather forecast

Current Montreal weatherSince 2004, celinium.com website has provided accurate weather forecast for Montreal's island.